createdAt,value
2019-05-07T00:02:28.878Z,99.60
2019-05-07T00:04:58.728Z,99.70
2019-05-07T00:07:28.523Z,99.80
2019-05-07T00:09:58.300Z,99.70
2019-05-07T00:12:28.097Z,99.80
2019-05-07T00:15:01.403Z,99.80
2019-05-07T00:21:03.365Z,99.80
2019-05-07T00:23:32.729Z,99.90
2019-05-07T00:26:03.430Z,99.90
2019-05-07T00:28:33.357Z,99.80
2019-05-07T00:31:03.083Z,99.80
2019-05-07T00:33:33.716Z,99.90
2019-05-07T00:36:09.378Z,99.90
2019-05-07T00:38:42.711Z,99.90
2019-05-07T00:41:43.574Z,99.90
2019-05-07T00:44:13.934Z,99.90
2019-05-07T00:46:43.727Z,99.70
2019-05-07T00:49:13.912Z,99.60
2019-05-07T00:51:43.896Z,99.60
2019-05-07T00:54:13.779Z,99.60
2019-05-07T00:56:43.581Z,99.60
2019-05-07T00:59:13.425Z,99.70
2019-05-07T01:01:43.422Z,99.70
2019-05-07T01:04:13.193Z,99.80
2019-05-07T01:06:43.086Z,99.90
2019-05-07T01:09:13.064Z,99.90
2019-05-07T01:11:43.100Z,99.90
2019-05-07T01:14:13.026Z,99.90
2019-05-07T01:16:43.000Z,99.90
2019-05-07T01:19:12.855Z,99.90
2019-05-07T01:21:43.274Z,99.90
2019-05-07T01:24:13.198Z,99.90
2019-05-07T01:26:42.903Z,99.90
2019-05-07T01:29:12.995Z,99.90
2019-05-07T01:31:52.680Z,99.90
2019-05-07T01:34:42.832Z,99.90
2019-05-07T01:37:12.450Z,99.90
2019-05-07T01:39:42.333Z,99.90
2019-05-07T01:42:12.864Z,99.90
2019-05-07T01:44:42.778Z,99.90
2019-05-07T01:47:13.145Z,99.90
2019-05-07T01:49:43.223Z,99.90
2019-05-07T01:52:13.450Z,99.90
2019-05-07T01:54:43.411Z,99.90
2019-05-07T01:57:13.347Z,99.90
2019-05-07T01:59:42.992Z,99.90
2019-05-07T02:02:22.855Z,99.90
2019-05-07T02:05:03.182Z,99.90
2019-05-07T02:07:40.142Z,99.90
2019-05-07T02:10:17.500Z,99.90
2019-05-07T02:12:47.375Z,99.90
2019-05-07T02:15:17.343Z,99.90
2019-05-07T02:17:47.299Z,99.90
2019-05-07T02:20:17.317Z,99.90
2019-05-07T02:22:47.250Z,99.90
2019-05-07T02:25:17.047Z,99.90
2019-05-07T02:27:46.870Z,99.90
2019-05-07T02:30:17.054Z,99.90
2019-05-07T02:32:46.886Z,99.90
2019-05-07T02:35:16.698Z,99.90
2019-05-07T02:38:03.108Z,99.90
2019-05-07T02:40:39.306Z,99.90
2019-05-07T02:43:09.212Z,99.90
2019-05-07T02:45:49.596Z,99.90
2019-05-07T02:48:23.724Z,99.90
2019-05-07T02:50:59.862Z,99.90
2019-05-07T02:53:44.876Z,99.90
2019-05-07T02:56:14.769Z,99.90
2019-05-07T02:58:44.538Z,99.90
2019-05-07T03:01:14.345Z,99.90
2019-05-07T03:03:44.870Z,99.90
2019-05-07T03:06:15.000Z,99.90
2019-05-07T03:08:45.070Z,99.90
2019-05-07T03:11:14.815Z,99.90
2019-05-07T03:13:44.782Z,99.90
2019-05-07T03:16:14.619Z,99.90
2019-05-07T03:18:44.474Z,99.90
2019-05-07T03:21:16.761Z,99.90
2019-05-07T03:24:05.354Z,99.90
2019-05-07T03:26:39.809Z,99.90
2019-05-07T03:29:14.782Z,99.90
2019-05-07T03:31:57.309Z,99.90
2019-05-07T03:34:46.548Z,99.90
2019-05-07T03:37:16.204Z,99.90
2019-05-07T03:39:46.068Z,99.90
2019-05-07T03:42:15.961Z,99.90
2019-05-07T03:44:54.285Z,99.90
2019-05-07T03:47:33.181Z,99.90
2019-05-07T03:50:03.342Z,99.90
2019-05-07T03:52:33.725Z,99.90
2019-05-07T03:55:03.958Z,99.90
2019-05-07T03:57:33.848Z,99.90
2019-05-07T04:00:04.420Z,99.90
2019-05-07T04:02:34.288Z,99.90
2019-05-07T04:05:04.643Z,99.90
2019-05-07T04:07:34.428Z,99.90
2019-05-07T04:10:04.974Z,99.90
2019-05-07T04:12:34.723Z,99.90
2019-05-07T04:15:04.767Z,99.90
2019-05-07T04:17:34.622Z,99.90
2019-05-07T04:20:04.816Z,99.90
2019-05-07T04:22:35.026Z,99.90
2019-05-07T04:25:38.485Z,99.90
2019-05-07T04:28:23.320Z,99.90
2019-05-07T04:30:53.388Z,99.90
2019-05-07T04:33:24.936Z,99.90
2019-05-07T04:36:02.849Z,99.90
2019-05-07T04:38:33.322Z,99.90
2019-05-07T04:41:04.062Z,99.90
2019-05-07T04:43:34.093Z,99.90
2019-05-07T04:46:05.530Z,99.90
2019-05-07T04:48:35.398Z,99.90
2019-05-07T04:51:08.115Z,99.90
2019-05-07T04:53:37.902Z,99.90
2019-05-07T04:56:07.879Z,99.90
2019-05-07T04:58:37.794Z,99.90
2019-05-07T05:01:09.475Z,99.90
2019-05-07T05:03:43.462Z,99.90
2019-05-07T05:06:13.838Z,99.90
2019-05-07T05:08:43.866Z,99.90
2019-05-07T05:11:19.820Z,99.90
2019-05-07T05:13:53.192Z,99.90
2019-05-07T05:16:24.601Z,99.90
2019-05-07T05:18:56.752Z,99.90
2019-05-07T05:21:37.200Z,99.90
2019-05-07T05:24:14.026Z,99.90
2019-05-07T05:26:43.612Z,99.90
2019-05-07T05:29:13.442Z,99.90
2019-05-07T05:31:56.217Z,99.90
2019-05-07T05:38:13.483Z,99.90
2019-05-07T05:40:43.643Z,99.90
2019-05-07T05:43:33.654Z,99.90
2019-05-07T05:46:05.582Z,99.90
2019-05-07T05:48:37.784Z,99.90
2019-05-07T05:51:38.420Z,99.90
2019-05-07T05:54:36.366Z,99.90
2019-05-07T05:57:27.591Z,99.90
2019-05-07T06:00:12.461Z,99.90
2019-05-07T06:03:02.520Z,99.90
2019-05-07T06:05:42.978Z,99.90
2019-05-07T06:08:28.598Z,99.90
2019-05-07T06:11:13.106Z,99.90
2019-05-07T06:13:52.644Z,99.90
2019-05-07T06:16:25.878Z,99.90
2019-05-07T06:19:23.704Z,99.90
2019-05-07T06:22:12.811Z,99.90
2019-05-07T06:24:56.531Z,99.90
2019-05-07T06:27:26.332Z,99.90
2019-05-07T06:29:56.157Z,99.90
2019-05-07T06:32:26.072Z,99.90
2019-05-07T06:34:55.930Z,99.90
2019-05-07T06:37:25.827Z,99.90
2019-05-07T06:40:19.414Z,99.90
2019-05-07T06:43:03.729Z,99.90
2019-05-07T06:45:38.273Z,99.90
2019-05-07T06:48:08.145Z,99.90
2019-05-07T06:50:37.998Z,99.90
2019-05-07T06:53:07.900Z,99.90
2019-05-07T06:55:37.705Z,99.90
2019-05-07T06:58:09.135Z,99.90
2019-05-07T07:01:11.970Z,99.90
2019-05-07T07:04:02.694Z,99.90
2019-05-07T07:06:38.938Z,99.90
2019-05-07T07:09:27.836Z,99.80
2019-05-07T07:12:01.998Z,99.70
2019-05-07T07:14:33.180Z,99.60
2019-05-07T07:17:03.173Z,99.40
2019-05-07T07:19:35.890Z,99.30
2019-05-07T07:22:04.833Z,99.10
2019-05-07T07:24:34.744Z,99.00
2019-05-07T07:27:04.688Z,98.90
2019-05-07T07:29:36.391Z,98.50
2019-05-07T07:32:06.939Z,98.90
2019-05-07T07:34:43.544Z,98.60
2019-05-07T07:37:35.197Z,98.40
2019-05-07T07:40:24.240Z,98.10
2019-05-07T07:43:07.142Z,97.70
2019-05-07T07:45:37.340Z,97.70
2019-05-07T07:48:07.226Z,97.70
2019-05-07T07:50:37.175Z,97.50
2019-05-07T07:53:07.186Z,97.60
2019-05-07T07:55:45.516Z,97.40
2019-05-07T07:58:41.920Z,97.30
2019-05-07T08:01:19.644Z,97.20
2019-05-07T08:03:49.592Z,97.00
2019-05-07T08:06:19.498Z,96.80
2019-05-07T08:08:49.462Z,96.70
2019-05-07T08:11:19.366Z,96.80
2019-05-07T08:13:49.150Z,96.80
2019-05-07T08:16:19.004Z,96.90
2019-05-07T08:18:49.167Z,96.60
2019-05-07T08:21:19.078Z,96.60
2019-05-07T08:23:49.057Z,96.60
2019-05-07T08:26:19.053Z,96.30
2019-05-07T08:28:49.018Z,96.10
2019-05-07T08:31:32.459Z,96.00
2019-05-07T08:34:09.902Z,95.40
2019-05-07T08:36:42.100Z,95.30
2019-05-07T08:39:12.975Z,95.10
2019-05-07T08:41:43.080Z,94.70
2019-05-07T08:44:17.061Z,95.00
2019-05-07T08:47:12.290Z,94.80
2019-05-07T08:53:22.367Z,95.00
2019-05-07T08:55:52.658Z,95.40
2019-05-07T08:58:22.766Z,95.10
2019-05-07T09:00:52.673Z,95.40
2019-05-07T09:03:40.087Z,95.30
2019-05-07T09:06:11.702Z,95.20
2019-05-07T09:08:43.522Z,95.00
2019-05-07T09:11:13.440Z,94.60
2019-05-07T09:13:43.460Z,93.80
2019-05-07T09:16:13.355Z,93.80
2019-05-07T09:18:43.226Z,93.60
2019-05-07T09:21:13.172Z,93.90
2019-05-07T09:23:43.137Z,93.70
2019-05-07T09:26:14.972Z,93.30
2019-05-07T09:28:58.206Z,92.90
2019-05-07T09:31:35.616Z,92.90
2019-05-07T09:34:05.471Z,92.60
2019-05-07T09:36:42.517Z,92.80
2019-05-07T09:39:12.496Z,92.60
2019-05-07T09:41:42.305Z,92.50
2019-05-07T09:44:12.160Z,92.40
2019-05-07T09:46:43.047Z,92.50
2019-05-07T09:49:13.787Z,92.40
2019-05-07T09:51:43.742Z,92.20
2019-05-07T09:54:13.685Z,91.80
2019-05-07T09:56:43.595Z,91.30
2019-05-07T09:59:13.679Z,91.00
2019-05-07T10:01:43.628Z,90.60
2019-05-07T10:04:13.516Z,90.30
2019-05-07T10:06:43.537Z,90.10
2019-05-07T10:09:13.454Z,89.70
2019-05-07T10:11:52.336Z,89.90
2019-05-07T10:14:22.399Z,89.20
2019-05-07T10:16:59.463Z,90.00
2019-05-07T10:19:29.500Z,90.00
2019-05-07T10:21:59.190Z,89.10
2019-05-07T10:24:29.064Z,88.20
2019-05-07T10:27:12.680Z,87.50
2019-05-07T10:29:42.881Z,86.90
2019-05-07T10:32:12.965Z,86.50
2019-05-07T10:34:42.892Z,86.50
2019-05-07T10:37:12.819Z,85.80
2019-05-07T10:39:43.113Z,85.30
2019-05-07T10:42:13.113Z,85.10
2019-05-07T10:45:03.597Z,84.10
2019-05-07T10:47:41.926Z,84.00
2019-05-07T10:50:19.231Z,83.50
2019-05-07T10:52:49.667Z,82.20
2019-05-07T10:55:19.434Z,81.50
2019-05-07T10:57:49.262Z,81.70
2019-05-07T11:00:22.558Z,82.00
2019-05-07T11:02:52.411Z,81.40
2019-05-07T11:05:24.808Z,80.70
2019-05-07T11:07:53.999Z,79.30
2019-05-07T11:10:24.095Z,77.60
2019-05-07T11:12:54.062Z,76.30
2019-05-07T11:15:23.894Z,75.40
2019-05-07T11:18:18.651Z,74.90
2019-05-07T11:20:50.457Z,76.00
2019-05-07T11:23:22.111Z,75.80
2019-05-07T11:25:52.695Z,74.90
2019-05-07T11:28:22.816Z,75.70
2019-05-07T11:30:52.581Z,75.50
2019-05-07T11:33:22.548Z,76.40
2019-05-07T11:35:52.797Z,78.10
2019-05-07T11:38:24.960Z,79.40
2019-05-07T11:40:55.446Z,79.90
2019-05-07T11:43:47.115Z,80.20
2019-05-07T11:46:35.132Z,80.00
2019-05-07T11:49:26.228Z,80.50
2019-05-07T11:52:09.672Z,81.30
2019-05-07T11:54:39.739Z,81.00
2019-05-07T11:57:11.591Z,81.20
2019-05-07T11:59:41.850Z,81.20
2019-05-07T12:02:12.135Z,80.90
2019-05-07T12:04:42.270Z,80.50
2019-05-07T12:07:12.114Z,80.40
2019-05-07T12:09:41.991Z,80.30
2019-05-07T12:12:12.763Z,80.10
2019-05-07T12:14:42.576Z,79.20
2019-05-07T12:17:12.336Z,78.30
2019-05-07T12:19:43.856Z,78.20
2019-05-07T12:22:15.408Z,77.60
2019-05-07T12:24:45.786Z,77.40
2019-05-07T12:27:15.808Z,76.90
2019-05-07T12:29:45.822Z,77.40
2019-05-07T12:32:34.648Z,77.20
2019-05-07T12:35:12.720Z,77.60
2019-05-07T12:37:45.828Z,77.80
2019-05-07T12:40:14.463Z,78.90
2019-05-07T12:42:45.665Z,79.90
2019-05-07T12:45:15.622Z,80.40
2019-05-07T12:47:45.408Z,81.30
2019-05-07T12:50:15.261Z,82.90
2019-05-07T12:52:53.492Z,84.10
2019-05-07T12:55:27.994Z,85.50
2019-05-07T12:57:57.796Z,86.40
2019-05-07T13:01:06.484Z,86.70
2019-05-07T13:03:58.251Z,86.70
2019-05-07T13:06:28.053Z,87.00
2019-05-07T13:08:57.807Z,86.50
2019-05-07T13:11:27.547Z,85.70
2019-05-07T13:13:57.470Z,85.30
2019-05-07T13:16:27.271Z,84.60
2019-05-07T13:18:56.982Z,83.20
2019-05-07T13:21:26.645Z,82.90
2019-05-07T13:23:56.571Z,83.30
2019-05-07T13:26:26.602Z,83.80
2019-05-07T13:28:56.439Z,84.00
2019-05-07T13:31:27.749Z,84.70
2019-05-07T13:34:03.536Z,84.20
2019-05-07T13:37:18.883Z,84.10
2019-05-07T13:39:53.893Z,83.70
2019-05-07T13:42:57.593Z,84.60
2019-05-07T13:45:49.000Z,85.30
2019-05-07T13:48:19.985Z,86.10
2019-05-07T13:50:49.775Z,86.50
2019-05-07T13:53:19.880Z,85.80
2019-05-07T13:55:49.814Z,84.90
2019-05-07T13:58:19.767Z,84.10
2019-05-07T14:01:12.054Z,83.30
2019-05-07T14:03:42.413Z,84.20
2019-05-07T14:06:16.367Z,84.20
2019-05-07T14:08:45.578Z,84.60
2019-05-07T14:11:15.665Z,85.00
2019-05-07T14:13:45.854Z,85.30
2019-05-07T14:16:15.836Z,85.80
2019-05-07T14:18:45.904Z,86.10
2019-05-07T14:21:15.863Z,86.50
2019-05-07T14:23:45.846Z,86.50
2019-05-07T14:26:18.424Z,86.20
2019-05-07T14:28:48.248Z,85.80
2019-05-07T14:31:17.996Z,85.40
2019-05-07T14:34:02.888Z,85.20
2019-05-07T14:36:44.659Z,84.90
2019-05-07T14:39:14.547Z,84.90
2019-05-07T14:41:44.469Z,84.90
2019-05-07T14:44:15.721Z,84.80
2019-05-07T14:46:51.610Z,84.50
2019-05-07T14:49:17.366Z,84.20
2019-05-07T14:51:47.491Z,83.90
2019-05-07T14:54:23.406Z,83.00
2019-05-07T14:56:53.156Z,82.50
2019-05-07T14:59:23.122Z,82.10
2019-05-07T15:01:54.244Z,81.50
2019-05-07T15:04:24.227Z,81.20
2019-05-07T15:06:54.163Z,81.40
2019-05-07T15:09:24.262Z,81.20
2019-05-07T15:11:54.238Z,80.90
2019-05-07T15:14:24.201Z,80.80
2019-05-07T15:16:56.801Z,80.80
2019-05-07T15:19:29.064Z,81.00
2019-05-07T15:22:17.899Z,80.60
2019-05-07T15:24:47.790Z,80.50
2019-05-07T15:27:19.165Z,79.90
2019-05-07T15:29:48.928Z,79.50
2019-05-07T15:32:21.694Z,79.20
2019-05-07T15:34:52.703Z,78.70
2019-05-07T15:37:22.538Z,77.80
2019-05-07T15:39:52.795Z,76.30
2019-05-07T15:42:22.608Z,74.90
2019-05-07T15:44:52.868Z,74.20
2019-05-07T15:47:28.025Z,73.40
2019-05-07T15:49:57.899Z,72.90
2019-05-07T15:52:57.669Z,71.50
2019-05-07T15:55:22.436Z,70.30
2019-05-07T15:57:52.250Z,71.30
2019-05-07T16:00:23.986Z,71.80
2019-05-07T16:02:59.802Z,72.40
2019-05-07T16:05:34.320Z,72.70
2019-05-07T16:08:07.606Z,72.80
2019-05-07T16:10:37.344Z,74.00
2019-05-07T16:13:08.107Z,74.60
2019-05-07T16:15:38.158Z,74.70
2019-05-07T16:18:13.081Z,74.40
2019-05-07T16:20:42.981Z,75.00
2019-05-07T16:23:17.294Z,74.80
2019-05-07T16:25:44.363Z,74.90
2019-05-07T16:28:14.245Z,75.10
2019-05-07T16:30:44.315Z,75.40
2019-05-07T16:33:14.200Z,75.50
2019-05-07T16:36:42.065Z,75.50
2019-05-07T16:39:12.185Z,75.20
2019-05-07T16:41:46.564Z,76.10
2019-05-07T16:44:16.515Z,76.30
2019-05-07T16:46:50.805Z,76.40
2019-05-07T16:49:24.683Z,76.30
2019-05-07T16:51:54.833Z,75.60
2019-05-07T16:54:31.012Z,75.20
2019-05-07T16:57:25.135Z,74.60
2019-05-07T16:59:55.709Z,74.20
2019-05-07T17:02:33.966Z,74.20
2019-05-07T17:09:27.061Z,73.80
2019-05-07T17:12:01.541Z,73.60
2019-05-07T17:14:38.278Z,73.60
2019-05-07T17:17:12.073Z,73.60
2019-05-07T17:19:46.353Z,73.50
2019-05-07T17:22:19.750Z,73.70
2019-05-07T17:24:55.756Z,73.50
2019-05-07T17:27:29.237Z,73.40
2019-05-07T17:30:04.535Z,73.50
2019-05-07T17:32:43.570Z,73.40
2019-05-07T17:35:25.958Z,73.10
2019-05-07T17:38:09.096Z,73.00
2019-05-07T17:40:51.958Z,73.10
2019-05-07T17:43:34.935Z,72.60
2019-05-07T17:46:16.262Z,72.80
2019-05-07T17:48:59.813Z,73.00
2019-05-07T17:51:46.924Z,73.10
2019-05-07T17:54:31.840Z,72.80
2019-05-07T17:57:14.401Z,72.60
2019-05-07T17:59:49.208Z,72.50
2019-05-07T18:02:54.344Z,71.90
2019-05-07T18:05:28.987Z,70.80
2019-05-07T18:08:01.610Z,70.30
2019-05-07T18:10:34.575Z,70.50
2019-05-07T18:13:04.603Z,70.80
2019-05-07T18:15:34.570Z,71.50
2019-05-07T18:18:07.081Z,72.00
2019-05-07T18:20:37.330Z,72.60
2019-05-07T18:23:10.549Z,73.10
2019-05-07T18:25:39.759Z,73.50
2019-05-07T18:28:12.300Z,74.30
2019-05-07T18:30:52.290Z,75.00
2019-05-07T18:33:43.335Z,75.50
2019-05-07T18:36:13.501Z,76.20
2019-05-07T18:38:43.666Z,76.90
2019-05-07T18:41:13.728Z,77.60
2019-05-07T18:43:43.908Z,78.60
2019-05-07T18:46:14.333Z,79.10
2019-05-07T18:48:44.597Z,80.60
2019-05-07T18:51:14.955Z,80.30
2019-05-07T18:53:45.159Z,81.00
2019-05-07T18:56:15.876Z,81.50
2019-05-07T18:58:46.430Z,82.10
2019-05-07T19:01:18.447Z,82.70
2019-05-07T19:03:49.328Z,83.40
2019-05-07T19:06:19.756Z,83.70
2019-05-07T19:08:49.892Z,84.10
2019-05-07T19:11:22.615Z,84.30
2019-05-07T19:13:53.572Z,84.60
2019-05-07T19:16:24.480Z,85.00
2019-05-07T19:29:49.895Z,86.60
2019-05-07T19:32:22.713Z,87.20
2019-05-07T19:34:53.377Z,87.50
2019-05-07T19:37:23.750Z,88.10
2019-05-07T19:39:55.166Z,88.60
2019-05-07T19:42:25.852Z,88.90
2019-05-07T19:44:56.382Z,89.20
2019-05-07T19:47:27.088Z,90.10
2019-05-07T19:49:58.403Z,89.80
2019-05-07T19:52:28.848Z,90.10
2019-05-07T19:55:04.167Z,90.20
2019-05-07T19:57:35.584Z,90.40
2019-05-07T20:00:08.029Z,90.60
2019-05-07T20:02:44.902Z,90.80
2019-05-07T20:05:15.659Z,90.90
2019-05-07T20:07:46.086Z,91.10
2019-05-07T20:10:22.279Z,91.10
2019-05-07T20:12:52.845Z,91.20
2019-05-07T20:15:23.317Z,91.20
2019-05-07T20:17:53.631Z,91.30
2019-05-07T20:20:23.891Z,91.40
2019-05-07T20:22:54.159Z,91.50
2019-05-07T20:25:24.540Z,91.60
2019-05-07T20:27:54.585Z,91.70
2019-05-07T20:30:24.795Z,91.90
2019-05-07T20:32:54.900Z,91.90
2019-05-07T20:35:25.063Z,92.10
2019-05-07T20:37:54.813Z,92.20
2019-05-07T20:40:24.648Z,92.20
2019-05-07T20:42:54.490Z,92.40
2019-05-07T20:45:24.458Z,92.50
2019-05-07T20:47:54.389Z,92.50
2019-05-07T20:50:24.434Z,92.60
2019-05-07T20:52:54.579Z,92.60
2019-05-07T20:55:34.111Z,92.70
2019-05-07T20:58:04.180Z,92.80
2019-05-07T21:00:34.854Z,93.00
2019-05-07T21:03:23.348Z,93.10
2019-05-07T21:05:53.748Z,93.10
2019-05-07T21:08:23.702Z,93.10
2019-05-07T21:10:53.991Z,93.20
2019-05-07T21:13:30.826Z,93.30
2019-05-07T21:15:56.192Z,93.50
2019-05-07T21:18:32.717Z,93.70
2019-05-07T21:21:02.842Z,93.80
2019-05-07T21:23:32.741Z,93.90
2019-05-07T21:26:02.566Z,94.00
2019-05-07T21:28:32.474Z,94.10
2019-05-07T21:31:02.752Z,94.10
2019-05-07T21:33:32.786Z,94.20
2019-05-07T21:36:02.938Z,94.30
2019-05-07T21:38:33.220Z,94.40
2019-05-07T21:41:03.000Z,94.50
2019-05-07T21:43:32.826Z,94.50
2019-05-07T21:46:02.802Z,94.60
2019-05-07T21:48:32.967Z,94.80
2019-05-07T21:51:03.115Z,95.20
2019-05-07T21:53:38.714Z,95.00
2019-05-07T21:56:27.645Z,95.00
2019-05-07T21:59:03.086Z,95.10
2019-05-07T22:01:43.471Z,95.10
2019-05-07T22:04:12.621Z,95.20
2019-05-07T22:06:45.452Z,95.20
2019-05-07T22:09:14.249Z,95.30
2019-05-07T22:11:44.345Z,95.40
2019-05-07T22:14:14.073Z,95.50
2019-05-07T22:16:44.532Z,95.60
2019-05-07T22:19:14.404Z,95.70
2019-05-07T22:21:44.173Z,95.70
2019-05-07T22:24:15.220Z,95.70
2019-05-07T22:26:45.089Z,95.80
2019-05-07T22:29:15.047Z,95.80
2019-05-07T22:31:55.495Z,95.90
2019-05-07T22:34:42.905Z,96.00
2019-05-07T22:37:12.737Z,96.00
2019-05-07T22:39:42.570Z,96.00
2019-05-07T22:42:12.421Z,96.10
2019-05-07T22:44:42.560Z,96.10
2019-05-07T22:47:22.658Z,96.10
2019-05-07T22:49:53.710Z,96.10
2019-05-07T22:52:24.007Z,96.10
2019-05-07T22:54:53.883Z,96.20
2019-05-07T22:57:54.877Z,96.30
2019-05-07T23:00:32.844Z,96.40
2019-05-07T23:03:02.905Z,96.40
2019-05-07T23:05:32.695Z,96.40
2019-05-07T23:08:02.663Z,96.50
2019-05-07T23:10:33.286Z,96.60
2019-05-07T23:13:03.132Z,96.70
2019-05-07T23:15:33.178Z,96.70
2019-05-07T23:18:04.430Z,96.80
2019-05-07T23:20:34.542Z,96.80
2019-05-07T23:23:04.323Z,96.80
2019-05-07T23:25:34.143Z,96.80
2019-05-07T23:28:05.312Z,96.90
2019-05-07T23:30:35.445Z,96.90
2019-05-07T23:33:05.164Z,96.90
2019-05-07T23:35:35.251Z,97.00
2019-05-07T23:38:05.263Z,97.00
2019-05-07T23:40:45.641Z,97.10
2019-05-07T23:43:15.889Z,97.10
2019-05-07T23:45:45.663Z,97.10
2019-05-07T23:48:15.362Z,97.00
2019-05-07T23:50:45.064Z,97.00
2019-05-07T23:53:15.271Z,97.10
2019-05-07T23:55:45.343Z,97.10
2019-05-07T23:58:15.073Z,97.10
